sensor_id;sensor_type;location;lat;lon;timestamp;temperature;humidity
54202;DHT22;40108;53.152;5.844;2022-11-25T00:00:45;7.60;94.60
54202;DHT22;40108;53.152;5.844;2022-11-25T00:03:10;7.60;94.60
54202;DHT22;40108;53.152;5.844;2022-11-25T00:05:36;7.60;94.60
54202;DHT22;40108;53.152;5.844;2022-11-25T00:08:02;7.60;94.60
54202;DHT22;40108;53.152;5.844;2022-11-25T00:10:28;7.60;94.60
54202;DHT22;40108;53.152;5.844;2022-11-25T00:12:53;7.60;94.50
54202;DHT22;40108;53.152;5.844;2022-11-25T00:15:19;7.60;94.60
54202;DHT22;40108;53.152;5.844;2022-11-25T00:17:45;7.60;94.60
54202;DHT22;40108;53.152;5.844;2022-11-25T00:20:11;7.60;94.60
54202;DHT22;40108;53.152;5.844;2022-11-25T00:22:37;7.60;94.60
54202;DHT22;40108;53.152;5.844;2022-11-25T00:25:03;7.60;94.50
54202;DHT22;40108;53.152;5.844;2022-11-25T00:27:29;7.60;94.50
54202;DHT22;40108;53.152;5.844;2022-11-25T00:29:54;7.60;94.40
54202;DHT22;40108;53.152;5.844;2022-11-25T00:32:20;7.60;94.40
54202;DHT22;40108;53.152;5.844;2022-11-25T00:34:46;7.60;94.40
54202;DHT22;40108;53.152;5.844;2022-11-25T00:37:12;7.70;94.40
54202;DHT22;40108;53.152;5.844;2022-11-25T00:39:38;7.70;94.30
54202;DHT22;40108;53.152;5.844;2022-11-25T00:42:04;7.70;94.20
54202;DHT22;40108;53.152;5.844;2022-11-25T00:44:47;7.70;94.20
54202;DHT22;40108;53.152;5.844;2022-11-25T00:47:19;7.70;94.20
54202;DHT22;40108;53.152;5.844;2022-11-25T00:49:52;7.70;94.20
54202;DHT22;40108;53.152;5.844;2022-11-25T00:52:21;7.70;94.20
54202;DHT22;40108;53.152;5.844;2022-11-25T00:54:48;7.70;94.10
54202;DHT22;40108;53.152;5.844;2022-11-25T00:57:15;7.80;94.10
54202;DHT22;40108;53.152;5.844;2022-11-25T00:59:41;7.80;94.10
54202;DHT22;40108;53.152;5.844;2022-11-25T01:02:09;7.80;94.10
54202;DHT22;40108;53.152;5.844;2022-11-25T01:04:35;7.80;94.20
54202;DHT22;40108;53.152;5.844;2022-11-25T01:07:00;7.80;94.20
54202;DHT22;40108;53.152;5.844;2022-11-25T01:09:27;7.80;94.30
54202;DHT22;40108;53.152;5.844;2022-11-25T01:11:53;7.80;94.20
54202;DHT22;40108;53.152;5.844;2022-11-25T01:14:19;7.80;94.30
54202;DHT22;40108;53.152;5.844;2022-11-25T01:16:46;7.80;94.30
54202;DHT22;40108;53.152;5.844;2022-11-25T01:19:12;7.80;94.30
54202;DHT22;40108;53.152;5.844;2022-11-25T01:21:38;7.80;94.30
54202;DHT22;40108;53.152;5.844;2022-11-25T01:24:05;7.80;94.40
54202;DHT22;40108;53.152;5.844;2022-11-25T01:26:32;7.70;94.50
54202;DHT22;40108;53.152;5.844;2022-11-25T01:29:00;7.80;94.60
54202;DHT22;40108;53.152;5.844;2022-11-25T01:31:28;7.80;94.70
54202;DHT22;40108;53.152;5.844;2022-11-25T01:33:58;7.80;94.80
54202;DHT22;40108;53.152;5.844;2022-11-25T01:36:25;7.80;95.10
54202;DHT22;40108;53.152;5.844;2022-11-25T01:38:52;7.80;95.20
54202;DHT22;40108;53.152;5.844;2022-11-25T01:41:20;7.80;95.50
54202;DHT22;40108;53.152;5.844;2022-11-25T01:44:10;7.70;95.70
54202;DHT22;40108;53.152;5.844;2022-11-25T01:52:26;7.70;96.20
54202;DHT22;40108;53.152;5.844;2022-11-25T01:55:04;7.70;96.30
54202;DHT22;40108;53.152;5.844;2022-11-25T01:57:46;7.60;96.40
54202;DHT22;40108;53.152;5.844;2022-11-25T02:00:13;7.60;96.50
54202;DHT22;40108;53.152;5.844;2022-11-25T02:02:39;7.60;96.60
54202;DHT22;40108;53.152;5.844;2022-11-25T02:05:10;7.60;96.60
54202;DHT22;40108;53.152;5.844;2022-11-25T02:07:39;7.60;96.70
54202;DHT22;40108;53.152;5.844;2022-11-25T02:10:10;7.60;96.70
54202;DHT22;40108;53.152;5.844;2022-11-25T02:12:39;7.60;96.80
54202;DHT22;40108;53.152;5.844;2022-11-25T02:15:06;7.60;96.90
54202;DHT22;40108;53.152;5.844;2022-11-25T02:17:33;7.60;96.90
54202;DHT22;40108;53.152;5.844;2022-11-25T02:20:08;7.60;96.90
54202;DHT22;40108;53.152;5.844;2022-11-25T02:25:21;7.60;97.10
54202;DHT22;40108;53.152;5.844;2022-11-25T02:27:51;7.60;97.20
54202;DHT22;40108;53.152;5.844;2022-11-25T02:30:18;7.60;97.20
54202;DHT22;40108;53.152;5.844;2022-11-25T02:32:47;7.60;97.20
54202;DHT22;40108;53.152;5.844;2022-11-25T02:35:30;7.70;97.30
54202;DHT22;40108;53.152;5.844;2022-11-25T02:40:35;7.60;97.40
54202;DHT22;40108;53.152;5.844;2022-11-25T02:43:02;7.60;97.40
54202;DHT22;40108;53.152;5.844;2022-11-25T02:48:18;7.60;97.50
54202;DHT22;40108;53.152;5.844;2022-11-25T02:50:44;7.60;97.50
54202;DHT22;40108;53.152;5.844;2022-11-25T02:53:10;7.60;97.50
54202;DHT22;40108;53.152;5.844;2022-11-25T02:55:36;7.60;97.50
54202;DHT22;40108;53.152;5.844;2022-11-25T02:58:01;7.70;97.50
54202;DHT22;40108;53.152;5.844;2022-11-25T03:00:27;7.70;97.60
54202;DHT22;40108;53.152;5.844;2022-11-25T03:02:53;7.70;97.60
54202;DHT22;40108;53.152;5.844;2022-11-25T03:05:22;7.70;97.70
54202;DHT22;40108;53.152;5.844;2022-11-25T03:07:48;7.70;97.70
54202;DHT22;40108;53.152;5.844;2022-11-25T03:10:14;7.70;97.80
54202;DHT22;40108;53.152;5.844;2022-11-25T03:12:39;7.70;97.80
54202;DHT22;40108;53.152;5.844;2022-11-25T03:15:05;7.70;97.90
54202;DHT22;40108;53.152;5.844;2022-11-25T03:17:31;7.80;97.90
54202;DHT22;40108;53.152;5.844;2022-11-25T03:19:57;7.80;97.90
54202;DHT22;40108;53.152;5.844;2022-11-25T03:22:23;7.80;98.00
54202;DHT22;40108;53.152;5.844;2022-11-25T03:24:49;7.80;98.00
54202;DHT22;40108;53.152;5.844;2022-11-25T03:27:14;7.80;98.00
54202;DHT22;40108;53.152;5.844;2022-11-25T03:29:40;7.80;98.00
54202;DHT22;40108;53.152;5.844;2022-11-25T03:32:06;7.80;98.10
54202;DHT22;40108;53.152;5.844;2022-11-25T03:34:32;7.80;98.10
54202;DHT22;40108;53.152;5.844;2022-11-25T03:36:57;7.90;98.10
54202;DHT22;40108;53.152;5.844;2022-11-25T03:39:23;7.90;98.10
54202;DHT22;40108;53.152;5.844;2022-11-25T03:41:49;7.90;98.10
54202;DHT22;40108;53.152;5.844;2022-11-25T03:44:15;7.90;98.20
54202;DHT22;40108;53.152;5.844;2022-11-25T03:46:40;8.00;98.10
54202;DHT22;40108;53.152;5.844;2022-11-25T03:49:06;8.00;98.10
54202;DHT22;40108;53.152;5.844;2022-11-25T03:51:32;8.00;98.10
54202;DHT22;40108;53.152;5.844;2022-11-25T03:53:58;8.00;98.10
54202;DHT22;40108;53.152;5.844;2022-11-25T03:56:23;7.90;98.10
54202;DHT22;40108;53.152;5.844;2022-11-25T03:58:49;8.00;98.10
54202;DHT22;40108;53.152;5.844;2022-11-25T04:01:15;7.90;98.10
54202;DHT22;40108;53.152;5.844;2022-11-25T04:03:40;7.90;98.10
54202;DHT22;40108;53.152;5.844;2022-11-25T04:06:06;7.90;98.10
54202;DHT22;40108;53.152;5.844;2022-11-25T04:08:32;7.90;98.10
54202;DHT22;40108;53.152;5.844;2022-11-25T04:10:58;7.90;98.10
54202;DHT22;40108;53.152;5.844;2022-11-25T04:13:23;7.90;98.10
54202;DHT22;40108;53.152;5.844;2022-11-25T04:15:50;7.90;98.10
54202;DHT22;40108;53.152;5.844;2022-11-25T04:18:16;7.90;98.10
54202;DHT22;40108;53.152;5.844;2022-11-25T04:20:43;7.90;98.20
54202;DHT22;40108;53.152;5.844;2022-11-25T04:23:09;7.90;98.10
54202;DHT22;40108;53.152;5.844;2022-11-25T04:25:37;7.90;98.20
54202;DHT22;40108;53.152;5.844;2022-11-25T04:28:03;7.90;98.20
54202;DHT22;40108;53.152;5.844;2022-11-25T04:30:29;7.90;98.20
54202;DHT22;40108;53.152;5.844;2022-11-25T04:32:55;7.90;98.30
54202;DHT22;40108;53.152;5.844;2022-11-25T04:35:21;7.90;98.30
54202;DHT22;40108;53.152;5.844;2022-11-25T04:37:46;7.90;98.30
54202;DHT22;40108;53.152;5.844;2022-11-25T04:40:12;7.90;98.30
54202;DHT22;40108;53.152;5.844;2022-11-25T04:42:39;7.90;98.30
54202;DHT22;40108;53.152;5.844;2022-11-25T04:45:14;7.90;98.30
54202;DHT22;40108;53.152;5.844;2022-11-25T04:47:40;7.90;98.40
54202;DHT22;40108;53.152;5.844;2022-11-25T04:50:10;7.90;98.30
54202;DHT22;40108;53.152;5.844;2022-11-25T04:52:37;7.90;98.30
54202;DHT22;40108;53.152;5.844;2022-11-25T04:55:03;7.90;98.30
54202;DHT22;40108;53.152;5.844;2022-11-25T04:57:28;7.80;98.40
54202;DHT22;40108;53.152;5.844;2022-11-25T04:59:54;7.90;98.40
54202;DHT22;40108;53.152;5.844;2022-11-25T05:02:22;7.80;98.40
54202;DHT22;40108;53.152;5.844;2022-11-25T05:04:50;7.80;98.40
54202;DHT22;40108;53.152;5.844;2022-11-25T05:07:17;7.80;98.40
54202;DHT22;40108;53.152;5.844;2022-11-25T05:09:44;7.80;98.40
54202;DHT22;40108;53.152;5.844;2022-11-25T05:12:12;7.80;98.40
54202;DHT22;40108;53.152;5.844;2022-11-25T05:14:38;7.80;98.40
54202;DHT22;40108;53.152;5.844;2022-11-25T05:17:05;7.80;98.40
54202;DHT22;40108;53.152;5.844;2022-11-25T05:19:31;7.80;98.40
54202;DHT22;40108;53.152;5.844;2022-11-25T05:21:57;7.80;98.40
54202;DHT22;40108;53.152;5.844;2022-11-25T05:24:26;7.80;98.40
54202;DHT22;40108;53.152;5.844;2022-11-25T05:26:52;7.80;98.50
54202;DHT22;40108;53.152;5.844;2022-11-25T05:29:18;7.80;98.40
54202;DHT22;40108;53.152;5.844;2022-11-25T05:31:43;7.90;98.50
54202;DHT22;40108;53.152;5.844;2022-11-25T05:34:09;7.80;98.40
54202;DHT22;40108;53.152;5.844;2022-11-25T05:36:35;7.90;98.50
54202;DHT22;40108;53.152;5.844;2022-11-25T05:39:01;7.90;98.50
54202;DHT22;40108;53.152;5.844;2022-11-25T05:41:27;7.90;98.50
54202;DHT22;40108;53.152;5.844;2022-11-25T05:43:53;7.90;98.50
54202;DHT22;40108;53.152;5.844;2022-11-25T05:46:19;8.00;98.50
54202;DHT22;40108;53.152;5.844;2022-11-25T05:48:45;8.00;98.50
54202;DHT22;40108;53.152;5.844;2022-11-25T05:51:11;8.00;98.50
54202;DHT22;40108;53.152;5.844;2022-11-25T05:53:37;8.00;98.50
54202;DHT22;40108;53.152;5.844;2022-11-25T05:56:04;8.00;98.50
54202;DHT22;40108;53.152;5.844;2022-11-25T05:58:31;8.00;98.50
54202;DHT22;40108;53.152;5.844;2022-11-25T06:00:57;8.00;98.50
54202;DHT22;40108;53.152;5.844;2022-11-25T06:03:27;8.10;98.50
54202;DHT22;40108;53.152;5.844;2022-11-25T06:05:57;8.10;98.50
54202;DHT22;40108;53.152;5.844;2022-11-25T06:08:23;8.10;98.50
54202;DHT22;40108;53.152;5.844;2022-11-25T06:10:49;8.10;98.40
54202;DHT22;40108;53.152;5.844;2022-11-25T06:13:15;8.20;98.50
54202;DHT22;40108;53.152;5.844;2022-11-25T06:15:42;8.20;98.40
54202;DHT22;40108;53.152;5.844;2022-11-25T06:18:09;8.20;98.40
54202;DHT22;40108;53.152;5.844;2022-11-25T06:20:35;8.20;98.30
54202;DHT22;40108;53.152;5.844;2022-11-25T06:23:01;8.20;98.30
54202;DHT22;40108;53.152;5.844;2022-11-25T06:25:27;8.20;98.30
54202;DHT22;40108;53.152;5.844;2022-11-25T06:27:53;8.20;98.20
54202;DHT22;40108;53.152;5.844;2022-11-25T06:30:19;8.20;98.20
54202;DHT22;40108;53.152;5.844;2022-11-25T06:32:45;8.10;98.10
54202;DHT22;40108;53.152;5.844;2022-11-25T06:35:11;8.10;98.10
54202;DHT22;40108;53.152;5.844;2022-11-25T06:37:37;8.00;98.10
54202;DHT22;40108;53.152;5.844;2022-11-25T06:40:03;8.00;98.10
54202;DHT22;40108;53.152;5.844;2022-11-25T06:42:29;7.90;98.00
54202;DHT22;40108;53.152;5.844;2022-11-25T06:44:55;7.80;98.00
54202;DHT22;40108;53.152;5.844;2022-11-25T06:47:20;7.80;98.00
54202;DHT22;40108;53.152;5.844;2022-11-25T06:49:46;7.80;98.00
54202;DHT22;40108;53.152;5.844;2022-11-25T06:52:12;7.80;98.00
54202;DHT22;40108;53.152;5.844;2022-11-25T06:54:38;7.70;98.00
54202;DHT22;40108;53.152;5.844;2022-11-25T06:57:09;7.70;97.90
54202;DHT22;40108;53.152;5.844;2022-11-25T06:59:35;7.70;97.90
54202;DHT22;40108;53.152;5.844;2022-11-25T07:02:01;7.70;97.90
54202;DHT22;40108;53.152;5.844;2022-11-25T07:04:27;7.70;97.90
54202;DHT22;40108;53.152;5.844;2022-11-25T07:06:53;7.60;97.80
54202;DHT22;40108;53.152;5.844;2022-11-25T07:09:19;7.60;97.80
54202;DHT22;40108;53.152;5.844;2022-11-25T07:11:47;7.60;97.80
54202;DHT22;40108;53.152;5.844;2022-11-25T07:14:14;7.60;97.80
54202;DHT22;40108;53.152;5.844;2022-11-25T07:16:42;7.50;97.80
54202;DHT22;40108;53.152;5.844;2022-11-25T07:19:10;7.50;97.80
54202;DHT22;40108;53.152;5.844;2022-11-25T07:21:37;7.50;97.80
54202;DHT22;40108;53.152;5.844;2022-11-25T07:24:05;7.50;97.70
54202;DHT22;40108;53.152;5.844;2022-11-25T07:26:34;7.40;97.70
54202;DHT22;40108;53.152;5.844;2022-11-25T07:29:02;7.40;97.70
54202;DHT22;40108;53.152;5.844;2022-11-25T07:31:33;7.40;97.70
54202;DHT22;40108;53.152;5.844;2022-11-25T07:34:12;7.40;97.70
54202;DHT22;40108;53.152;5.844;2022-11-25T07:36:39;7.30;97.60
54202;DHT22;40108;53.152;5.844;2022-11-25T07:39:07;7.30;97.60
54202;DHT22;40108;53.152;5.844;2022-11-25T07:41:34;7.30;97.70
54202;DHT22;40108;53.152;5.844;2022-11-25T07:44:03;7.30;97.70
54202;DHT22;40108;53.152;5.844;2022-11-25T07:46:34;7.30;97.70
54202;DHT22;40108;53.152;5.844;2022-11-25T07:49:06;7.30;97.70
54202;DHT22;40108;53.152;5.844;2022-11-25T07:51:38;7.30;97.70
54202;DHT22;40108;53.152;5.844;2022-11-25T07:54:06;7.30;97.70
54202;DHT22;40108;53.152;5.844;2022-11-25T07:56:34;7.20;97.60
54202;DHT22;40108;53.152;5.844;2022-11-25T07:59:00;7.20;97.60
54202;DHT22;40108;53.152;5.844;2022-11-25T08:01:26;7.10;97.60
54202;DHT22;40108;53.152;5.844;2022-11-25T08:03:52;7.10;97.60
54202;DHT22;40108;53.152;5.844;2022-11-25T08:06:23;7.00;97.60
54202;DHT22;40108;53.152;5.844;2022-11-25T08:08:50;7.00;97.60
54202;DHT22;40108;53.152;5.844;2022-11-25T08:11:28;6.90;97.70
54202;DHT22;40108;53.152;5.844;2022-11-25T08:13:54;6.90;97.70
54202;DHT22;40108;53.152;5.844;2022-11-25T08:16:22;6.90;97.80
54202;DHT22;40108;53.152;5.844;2022-11-25T08:18:48;6.90;97.80
54202;DHT22;40108;53.152;5.844;2022-11-25T08:21:15;6.90;97.90
54202;DHT22;40108;53.152;5.844;2022-11-25T08:23:41;6.90;97.90
54202;DHT22;40108;53.152;5.844;2022-11-25T08:26:17;7.00;97.90
54202;DHT22;40108;53.152;5.844;2022-11-25T08:28:43;7.00;98.00
54202;DHT22;40108;53.152;5.844;2022-11-25T08:31:21;7.00;98.00
54202;DHT22;40108;53.152;5.844;2022-11-25T08:33:47;7.10;98.00
54202;DHT22;40108;53.152;5.844;2022-11-25T08:36:14;7.20;98.10
54202;DHT22;40108;53.152;5.844;2022-11-25T08:38:40;7.20;98.00
54202;DHT22;40108;53.152;5.844;2022-11-25T08:41:19;7.20;98.10
54202;DHT22;40108;53.152;5.844;2022-11-25T08:43:44;7.40;98.10
54202;DHT22;40108;53.152;5.844;2022-11-25T08:46:13;7.40;98.00
54202;DHT22;40108;53.152;5.844;2022-11-25T08:48:40;7.50;98.00
54202;DHT22;40108;53.152;5.844;2022-11-25T08:51:12;7.50;98.00
54202;DHT22;40108;53.152;5.844;2022-11-25T08:53:38;7.60;98.00
54202;DHT22;40108;53.152;5.844;2022-11-25T08:56:06;7.70;97.90
54202;DHT22;40108;53.152;5.844;2022-11-25T08:58:32;7.70;97.90
54202;DHT22;40108;53.152;5.844;2022-11-25T09:00:58;7.80;97.90
54202;DHT22;40108;53.152;5.844;2022-11-25T09:03:24;7.90;97.80
54202;DHT22;40108;53.152;5.844;2022-11-25T09:05:51;8.10;97.70
54202;DHT22;40108;53.152;5.844;2022-11-25T09:08:17;8.20;97.60
54202;DHT22;40108;53.152;5.844;2022-11-25T09:10:43;8.20;97.40
54202;DHT22;40108;53.152;5.844;2022-11-25T09:13:08;8.30;97.40
54202;DHT22;40108;53.152;5.844;2022-11-25T09:15:36;8.40;97.20
54202;DHT22;40108;53.152;5.844;2022-11-25T09:18:04;8.40;96.80
54202;DHT22;40108;53.152;5.844;2022-11-25T09:20:32;8.50;96.90
54202;DHT22;40108;53.152;5.844;2022-11-25T09:22:59;8.70;96.90
54202;DHT22;40108;53.152;5.844;2022-11-25T09:25:24;8.80;96.80
54202;DHT22;40108;53.152;5.844;2022-11-25T09:27:50;8.80;96.60
54202;DHT22;40108;53.152;5.844;2022-11-25T09:30:16;8.90;96.30
54202;DHT22;40108;53.152;5.844;2022-11-25T09:32:42;9.00;96.10
54202;DHT22;40108;53.152;5.844;2022-11-25T09:35:08;9.10;95.90
54202;DHT22;40108;53.152;5.844;2022-11-25T09:37:34;9.10;95.40
54202;DHT22;40108;53.152;5.844;2022-11-25T09:40:00;9.10;95.40
54202;DHT22;40108;53.152;5.844;2022-11-25T09:42:41;9.00;95.10
54202;DHT22;40108;53.152;5.844;2022-11-25T09:45:42;8.80;95.00
54202;DHT22;40108;53.152;5.844;2022-11-25T09:51:22;8.70;95.20
54202;DHT22;40108;53.152;5.844;2022-11-25T09:53:53;8.70;95.30
54202;DHT22;40108;53.152;5.844;2022-11-25T09:56:34;8.70;95.40
54202;DHT22;40108;53.152;5.844;2022-11-25T09:59:01;8.90;95.60
54202;DHT22;40108;53.152;5.844;2022-11-25T10:01:30;9.00;95.80
54202;DHT22;40108;53.152;5.844;2022-11-25T10:04:10;9.10;95.70
54202;DHT22;40108;53.152;5.844;2022-11-25T10:06:49;9.30;95.40
54202;DHT22;40108;53.152;5.844;2022-11-25T10:09:20;9.60;95.60
54202;DHT22;40108;53.152;5.844;2022-11-25T10:11:50;9.80;95.40
54202;DHT22;40108;53.152;5.844;2022-11-25T10:20:11;10.20;94.20
54202;DHT22;40108;53.152;5.844;2022-11-25T10:22:47;10.30;93.50
54202;DHT22;40108;53.152;5.844;2022-11-25T10:25:16;10.50;93.20
54202;DHT22;40108;53.152;5.844;2022-11-25T10:27:45;10.60;93.10
54202;DHT22;40108;53.152;5.844;2022-11-25T10:30:24;10.60;92.80
54202;DHT22;40108;53.152;5.844;2022-11-25T10:33:02;10.50;92.10
54202;DHT22;40108;53.152;5.844;2022-11-25T10:36:02;10.30;91.90
54202;DHT22;40108;53.152;5.844;2022-11-25T10:38:49;10.20;92.10
54202;DHT22;40108;53.152;5.844;2022-11-25T10:41:18;10.20;92.50
54202;DHT22;40108;53.152;5.844;2022-11-25T10:43:45;10.20;92.70
54202;DHT22;40108;53.152;5.844;2022-11-25T10:52:31;10.00;92.90
54202;DHT22;40108;53.152;5.844;2022-11-25T10:55:10;9.90;92.80
54202;DHT22;40108;53.152;5.844;2022-11-25T10:57:35;9.90;92.90
54202;DHT22;40108;53.152;5.844;2022-11-25T11:00:06;9.90;93.20
54202;DHT22;40108;53.152;5.844;2022-11-25T11:02:39;9.90;93.30
54202;DHT22;40108;53.152;5.844;2022-11-25T11:05:18;9.90;93.40
54202;DHT22;40108;53.152;5.844;2022-11-25T11:07:46;10.10;93.70
54202;DHT22;40108;53.152;5.844;2022-11-25T11:10:24;10.30;93.80
54202;DHT22;40108;53.152;5.844;2022-11-25T11:13:08;10.60;93.60
54202;DHT22;40108;53.152;5.844;2022-11-25T11:20:55;11.30;92.80
54202;DHT22;40108;53.152;5.844;2022-11-25T11:23:21;11.40;92.30
54202;DHT22;40108;53.152;5.844;2022-11-25T11:39:27;11.60;91.30
54202;DHT22;40108;53.152;5.844;2022-11-25T11:42:03;11.50;91.10
54202;DHT22;40108;53.152;5.844;2022-11-25T11:45:03;11.50;91.30
54202;DHT22;40108;53.152;5.844;2022-11-25T11:50:32;11.80;91.30
54202;DHT22;40108;53.152;5.844;2022-11-25T11:53:20;11.90;91.00
54202;DHT22;40108;53.152;5.844;2022-11-25T12:01:24;11.90;89.80
54202;DHT22;40108;53.152;5.844;2022-11-25T12:04:02;12.10;89.80
54202;DHT22;40108;53.152;5.844;2022-11-25T12:06:33;12.10;89.10
54202;DHT22;40108;53.152;5.844;2022-11-25T12:09:09;12.10;89.40
54202;DHT22;40108;53.152;5.844;2022-11-25T12:11:39;12.30;89.70
54202;DHT22;40108;53.152;5.844;2022-11-25T12:14:31;12.40;89.60
54202;DHT22;40108;53.152;5.844;2022-11-25T12:17:02;12.50;88.90
54202;DHT22;40108;53.152;5.844;2022-11-25T12:19:32;12.40;88.10
54202;DHT22;40108;53.152;5.844;2022-11-25T12:22:21;12.30;87.10
54202;DHT22;40108;53.152;5.844;2022-11-25T12:27:39;12.30;88.40
54202;DHT22;40108;53.152;5.844;2022-11-25T12:30:12;12.40;88.50
54202;DHT22;40108;53.152;5.844;2022-11-25T12:32:47;12.30;87.90
54202;DHT22;40108;53.152;5.844;2022-11-25T12:46:12;11.70;88.60
54202;DHT22;40108;53.152;5.844;2022-11-25T12:48:42;11.70;88.70
54202;DHT22;40108;53.152;5.844;2022-11-25T12:51:40;11.60;88.90
54202;DHT22;40108;53.152;5.844;2022-11-25T13:16:14;11.20;90.60
54202;DHT22;40108;53.152;5.844;2022-11-25T13:18:43;11.20;90.70
54202;DHT22;40108;53.152;5.844;2022-11-25T13:21:11;11.20;90.90
54202;DHT22;40108;53.152;5.844;2022-11-25T13:34:24;11.10;91.30
54202;DHT22;40108;53.152;5.844;2022-11-25T13:36:55;11.10;91.40
54202;DHT22;40108;53.152;5.844;2022-11-25T13:39:29;11.10;91.50
54202;DHT22;40108;53.152;5.844;2022-11-25T13:42:11;11.20;91.50
54202;DHT22;40108;53.152;5.844;2022-11-25T13:44:51;11.20;91.40
54202;DHT22;40108;53.152;5.844;2022-11-25T13:47:36;11.20;91.20
54202;DHT22;40108;53.152;5.844;2022-11-25T13:50:20;11.10;91.20
54202;DHT22;40108;53.152;5.844;2022-11-25T13:53:05;11.00;91.20
54202;DHT22;40108;53.152;5.844;2022-11-25T13:55:40;10.90;91.20
54202;DHT22;40108;53.152;5.844;2022-11-25T14:08:25;10.80;91.80
54202;DHT22;40108;53.152;5.844;2022-11-25T14:22:11;10.80;92.10
54202;DHT22;40108;53.152;5.844;2022-11-25T14:24:46;10.70;92.10
54202;DHT22;40108;53.152;5.844;2022-11-25T14:27:26;10.70;92.20
54202;DHT22;40108;53.152;5.844;2022-11-25T14:29:55;10.70;92.20
54202;DHT22;40108;53.152;5.844;2022-11-25T14:32:43;10.70;92.20
54202;DHT22;40108;53.152;5.844;2022-11-25T14:35:16;10.60;92.30
54202;DHT22;40108;53.152;5.844;2022-11-25T14:37:51;10.60;92.30
54202;DHT22;40108;53.152;5.844;2022-11-25T14:42:52;10.60;92.40
54202;DHT22;40108;53.152;5.844;2022-11-25T14:45:27;10.60;92.50
54202;DHT22;40108;53.152;5.844;2022-11-25T14:48:11;10.50;92.50
54202;DHT22;40108;53.152;5.844;2022-11-25T14:50:37;10.50;92.60
54202;DHT22;40108;53.152;5.844;2022-11-25T14:53:08;10.50;92.70
54202;DHT22;40108;53.152;5.844;2022-11-25T14:55:34;10.50;92.70
54202;DHT22;40108;53.152;5.844;2022-11-25T14:58:01;10.50;92.70
54202;DHT22;40108;53.152;5.844;2022-11-25T15:00:27;10.40;92.70
54202;DHT22;40108;53.152;5.844;2022-11-25T15:02:58;10.40;92.70
54202;DHT22;40108;53.152;5.844;2022-11-25T15:05:29;10.30;92.70
54202;DHT22;40108;53.152;5.844;2022-11-25T15:08:16;10.30;92.80
54202;DHT22;40108;53.152;5.844;2022-11-25T15:13:29;10.10;92.80
54202;DHT22;40108;53.152;5.844;2022-11-25T15:16:09;10.10;92.80
54202;DHT22;40108;53.152;5.844;2022-11-25T15:18:37;10.00;92.80
54202;DHT22;40108;53.152;5.844;2022-11-25T15:21:03;9.90;92.80
54202;DHT22;40108;53.152;5.844;2022-11-25T15:23:32;9.90;92.80
54202;DHT22;40108;53.152;5.844;2022-11-25T15:26:01;9.90;92.80
54202;DHT22;40108;53.152;5.844;2022-11-25T15:28:37;9.80;92.80
54202;DHT22;40108;53.152;5.844;2022-11-25T15:31:09;9.70;92.90
54202;DHT22;40108;53.152;5.844;2022-11-25T15:33:35;9.70;92.90
54202;DHT22;40108;53.152;5.844;2022-11-25T15:36:02;9.60;92.90
54202;DHT22;40108;53.152;5.844;2022-11-25T15:41:04;9.40;93.00
54202;DHT22;40108;53.152;5.844;2022-11-25T15:43:31;9.30;93.10
54202;DHT22;40108;53.152;5.844;2022-11-25T15:46:03;9.20;93.10
54202;DHT22;40108;53.152;5.844;2022-11-25T15:49:00;9.10;93.10
54202;DHT22;40108;53.152;5.844;2022-11-25T15:51:31;9.10;93.30
54202;DHT22;40108;53.152;5.844;2022-11-25T15:54:19;8.90;93.30
54202;DHT22;40108;53.152;5.844;2022-11-25T15:56:53;8.80;93.50
54202;DHT22;40108;53.152;5.844;2022-11-25T16:10:32;8.60;93.80
54202;DHT22;40108;53.152;5.844;2022-11-25T16:15:53;8.40;93.80
54202;DHT22;40108;53.152;5.844;2022-11-25T16:18:21;8.30;93.90
54202;DHT22;40108;53.152;5.844;2022-11-25T16:20:53;8.20;94.00
54202;DHT22;40108;53.152;5.844;2022-11-25T16:23:24;8.20;94.10
54202;DHT22;40108;53.152;5.844;2022-11-25T16:28:48;8.10;94.10
54202;DHT22;40108;53.152;5.844;2022-11-25T16:31:15;8.10;94.20
54202;DHT22;40108;53.152;5.844;2022-11-25T16:33:41;8.00;94.20
54202;DHT22;40108;53.152;5.844;2022-11-25T16:36:07;8.00;94.30
54202;DHT22;40108;53.152;5.844;2022-11-25T16:38:33;7.90;94.30
54202;DHT22;40108;53.152;5.844;2022-11-25T16:40:59;7.90;94.30
54202;DHT22;40108;53.152;5.844;2022-11-25T16:43:32;7.80;94.50
54202;DHT22;40108;53.152;5.844;2022-11-25T16:45:58;7.70;94.60
54202;DHT22;40108;53.152;5.844;2022-11-25T16:48:24;7.70;94.60
54202;DHT22;40108;53.152;5.844;2022-11-25T16:50:50;7.60;94.70
54202;DHT22;40108;53.152;5.844;2022-11-25T16:53:17;7.60;94.70
54202;DHT22;40108;53.152;5.844;2022-11-25T16:55:44;7.50;94.80
54202;DHT22;40108;53.152;5.844;2022-11-25T16:58:22;7.50;94.90
54202;DHT22;40108;53.152;5.844;2022-11-25T17:00:51;7.50;94.90
54202;DHT22;40108;53.152;5.844;2022-11-25T17:03:18;7.40;94.90
54202;DHT22;40108;53.152;5.844;2022-11-25T17:05:44;7.40;95.00
54202;DHT22;40108;53.152;5.844;2022-11-25T17:08:12;7.40;95.10
54202;DHT22;40108;53.152;5.844;2022-11-25T17:10:39;7.40;95.00
54202;DHT22;40108;53.152;5.844;2022-11-25T17:13:05;7.30;95.10
54202;DHT22;40108;53.152;5.844;2022-11-25T17:15:33;7.20;95.10
54202;DHT22;40108;53.152;5.844;2022-11-25T17:18:00;7.20;95.20
54202;DHT22;40108;53.152;5.844;2022-11-25T17:20:26;7.20;95.20
54202;DHT22;40108;53.152;5.844;2022-11-25T17:22:53;7.20;95.30
54202;DHT22;40108;53.152;5.844;2022-11-25T17:25:19;7.20;95.30
54202;DHT22;40108;53.152;5.844;2022-11-25T17:27:46;7.10;95.40
54202;DHT22;40108;53.152;5.844;2022-11-25T17:30:24;7.10;95.50
54202;DHT22;40108;53.152;5.844;2022-11-25T17:33:05;7.10;95.50
54202;DHT22;40108;53.152;5.844;2022-11-25T17:35:31;7.10;95.50
54202;DHT22;40108;53.152;5.844;2022-11-25T17:37:58;7.00;95.50
54202;DHT22;40108;53.152;5.844;2022-11-25T17:40:24;7.00;95.60
54202;DHT22;40108;53.152;5.844;2022-11-25T17:42:50;7.00;95.60
54202;DHT22;40108;53.152;5.844;2022-11-25T17:45:18;6.90;95.60
54202;DHT22;40108;53.152;5.844;2022-11-25T17:47:45;6.90;95.70
54202;DHT22;40108;53.152;5.844;2022-11-25T17:52:37;6.80;95.70
54202;DHT22;40108;53.152;5.844;2022-11-25T17:55:03;6.80;95.70
54202;DHT22;40108;53.152;5.844;2022-11-25T17:57:28;6.70;95.70
54202;DHT22;40108;53.152;5.844;2022-11-25T17:59:54;6.70;95.70
54202;DHT22;40108;53.152;5.844;2022-11-25T18:02:21;6.70;95.70
54202;DHT22;40108;53.152;5.844;2022-11-25T18:04:47;6.60;95.70
54202;DHT22;40108;53.152;5.844;2022-11-25T18:07:13;6.70;95.90
54202;DHT22;40108;53.152;5.844;2022-11-25T18:09:39;6.70;95.90
54202;DHT22;40108;53.152;5.844;2022-11-25T18:12:14;6.60;96.00
54202;DHT22;40108;53.152;5.844;2022-11-25T18:14:41;6.60;96.00
54202;DHT22;40108;53.152;5.844;2022-11-25T18:17:13;6.60;96.00
54202;DHT22;40108;53.152;5.844;2022-11-25T18:19:41;6.60;96.00
54202;DHT22;40108;53.152;5.844;2022-11-25T18:22:15;6.50;96.10
54202;DHT22;40108;53.152;5.844;2022-11-25T18:24:41;6.50;96.10
54202;DHT22;40108;53.152;5.844;2022-11-25T18:27:12;6.50;96.10